Flight Track Log - Related Links

Times and Time Zones

All times are in EDT time to prevent confusion due to time zone crossing. See the N143DE flight status page for this flight to view local times or setup timezone preferences in your user account.


Time Position Orientation Groundspeed Altitude Reporting Facility
EDT Latitude Longitude Course Direction KTS MPH feet Rate Location/Type
Thu 09:27:21 AM 32.8667 -96.8500 337° Northwest 110 127 1,400  Level Dallas / Fort Worth TRACON
Thu 09:28:10 AM 32.9000 -96.8667 337° Northwest 177 204 2,200 1,398 Climbing Dallas / Fort Worth TRACON
Thu 09:29:04 AM 32.9333 -96.8500 23° Northeast 173 199 3,800 947 Climbing Dallas / Fort Worth TRACON
Thu 09:30:04 AM 32.9833 -96.8333 16° North 219 252 4,000 100 Climbing Dallas / Fort Worth TRACON
Thu 09:31:04 AM 33.0333 -96.8167 16° North 224 258 4,000  Level Dallas / Fort Worth TRACON
Thu 09:32:04 AM 33.1000 -96.8167 360° North 215 247 4,000 364 Level Dallas / Fort Worth TRACON
Thu 09:32:43 AM 33.1347 -96.8356 336° Northwest 212 244 4,600 1,212 Climbing Fort Worth Center
Thu 09:33:43 AM 33.1869 -96.8450 351° North 217 250 6,000 1,550 Climbing Fort Worth Center
Thu 09:34:43 AM 33.2475 -96.8594 349° North 212 244 7,700 1,500 Climbing Fort Worth Center
Thu 09:35:43 AM 33.2978 -96.8767 344° North 196 226 9,000 1,300 Climbing Fort Worth Center
Thu 09:36:43 AM 33.3583 -96.8936 347° North 201 231 10,300 1,250 Climbing Fort Worth Center
Thu 09:37:43 AM 33.4086 -96.9108 344° North 206 237 11,500 1,500 Climbing Fort Worth Center
Thu 09:38:43 AM 33.4711 -96.9303 345° North 206 237 13,300 1,600 Climbing Fort Worth Center
Thu 09:39:43 AM 33.5150 -96.9450 344° North 190 219 14,700 1,500 Climbing Fort Worth Center
Thu 09:40:43 AM 33.5694 -96.9622 353° North 184 212 16,300 1,250 Climbing Fort Worth Center
Thu 09:41:43 AM 33.6133 -96.9769 344° North 184 212 17,200 950 Climbing Fort Worth Center
Thu 09:42:43 AM 33.6697 -96.9942 346° North 184 212 18,200 1,000 Climbing Fort Worth Center
Thu 09:43:43 AM 33.7114 -97.0089 344° North 184 212 19,200 950 Climbing Fort Worth Center
Thu 09:44:43 AM 33.7658 -97.0236 347° North 184 212 20,100 750 Climbing Fort Worth Center
Thu 09:45:43 AM 33.8117 -97.0411 342° North 184 212 20,700 700 Climbing Fort Worth Center
Thu 09:46:43 AM 33.8639 -97.0558 347° North 184 212 21,500 750 Climbing Fort Worth Center
Thu 09:47:43 AM 33.9142 -97.0731 344° North 184 212 22,200 700 Climbing Fort Worth Center
Thu 09:48:43 AM 33.9642 -97.0881 346° North 184 212 22,900 650 Climbing Fort Worth Center
Thu 09:49:43 AM 34.0164 -97.1028 347° North 184 212 23,500 650 Climbing Fort Worth Center
Thu 09:50:43 AM 34.0667 -97.1228 342° North 184 212 24,200 750 Climbing Fort Worth Center
Thu 09:51:43 AM 34.1189 -97.1375 347° North 184 212 25,000 800 Climbing Fort Worth Center
Thu 09:52:43 AM 34.1669 -97.1525 346° North 184 212 25,800 550 Climbing Fort Worth Center
Thu 09:53:43 AM 34.2189 -97.1675 347° North 184 212 26,100 100 Climbing Fort Worth Center
Thu 09:54:43 AM 34.2753 -97.1872 344° North 195 224 26,000 -50 Descending Fort Worth Center
Thu 09:55:43 AM 34.3400 -97.2072 346° North 211 243 26,000  Level Fort Worth Center
Thu 09:56:43 AM 34.4028 -97.2272 345° North 223 257 26,000  Level Fort Worth Center
Thu 09:57:43 AM 34.4486 -97.2775 318° Northwest 220 253 26,000  Level Fort Worth Center
Thu 09:58:43 AM 34.4906 -97.3431 308° West 225 259 26,000  Level Fort Worth Center
Thu 09:59:43 AM 34.5342 -97.3958 315° West 225 259 26,000  Level Fort Worth Center
Thu 10:00:43 AM 34.5781 -97.4539 313° West 225 259 26,000  Level Fort Worth Center
Thu 10:01:43 AM 34.6197 -97.5169 309° West 230 265 26,000  Level Fort Worth Center
Thu 10:02:43 AM 34.6697 -97.5775 315° West 235 270 26,000  Level Fort Worth Center
Thu 10:03:43 AM 34.7156 -97.6358 314° West 235 270 26,000  Level Fort Worth Center
Thu 10:04:43 AM 34.7572 -97.6917 312° West 235 270 26,000  Level Fort Worth Center
Thu 10:05:43 AM 34.7989 -97.7497 311° West 235 270 26,000  Level Fort Worth Center
Thu 10:06:43 AM 34.8425 -97.8083 312° West 240 276 26,000  Level Fort Worth Center
Thu 10:07:43 AM 34.8861 -97.8667 312° West 235 270 26,000  Level Fort Worth Center
Thu 10:08:43 AM 34.9275 -97.9225 312° West 235 270 26,000  Level Fort Worth Center
Thu 10:09:43 AM 34.9711 -97.9811 312° West 235 270 26,000  Level Fort Worth Center
Thu 10:10:43 AM 35.0125 -98.0397 311° West 235 270 26,000  Level Fort Worth Center
Thu 10:11:43 AM 35.0539 -98.0983 311° West 235 270 26,000  Level Fort Worth Center
Thu 10:12:43 AM 35.0975 -98.1544 314° West 235 270 26,000  Level Fort Worth Center
Thu 10:13:43 AM 35.1389 -98.2133 311° West 235 270 26,000  Level Fort Worth Center
Thu 10:14:43 AM 35.1842 -98.2722 313° West 235 270 26,000  Level Fort Worth Center
Thu 10:15:43 AM 35.2233 -98.3308 309° West 235 270 26,000  Level Fort Worth Center
Thu 10:16:43 AM 35.2669 -98.3900 312° West 235 270 26,000  Level Fort Worth Center
Thu 10:17:43 AM 35.3103 -98.4489 312° West 235 270 26,000  Level Fort Worth Center
Thu 10:18:43 AM 35.3514 -98.5081 310° West 235 270 26,000  Level Fort Worth Center
Thu 10:19:43 AM 35.3947 -98.5647 313° West 235 270 26,000  Level Fort Worth Center
Thu 10:20:43 AM 35.4358 -98.6239 310° West 235 270 26,000  Level Fort Worth Center
Thu 10:21:43 AM 35.4750 -98.6753 313° West 234 269 26,000  Level Fort Worth Center
Thu 10:23:25 AM 35.5458 -98.7783 310° West 225 259 26,000  Level Kansas City Center
Thu 10:24:27 AM 35.5867 -98.8361 311° West 223 257 26,000  Level Kansas City Center
Thu 10:25:29 AM 35.6281 -98.8944 311° West 225 259 26,000  Level Kansas City Center
Thu 10:26:31 AM 35.6706 -98.9514 313° West 225 259 26,000  Level Kansas City Center
Thu 10:27:33 AM 35.7119 -99.0092 311° West 224 258 26,000  Level Kansas City Center
Thu 10:28:35 AM 35.7531 -99.0672 311° West 223 257 26,000  Level Kansas City Center
Thu 10:29:37 AM 35.8003 -99.1372 310° West 221 254 26,000  Level Kansas City Center
Thu 10:30:39 AM 35.8428 -99.1944 313° West 222 255 26,000  Level Kansas City Center
Thu 10:31:41 AM 35.8839 -99.2531 311° West 223 257 26,000  Level Kansas City Center
Thu 10:32:43 AM 35.9253 -99.3122 311° West 223 257 26,000  Level Kansas City Center
Thu 10:33:45 AM 35.9678 -99.3703 312° West 224 258 26,000  Level Kansas City Center
Thu 10:34:48 AM 36.0092 -99.4300 311° West 225 259 26,000  Level Kansas City Center
Thu 10:35:50 AM 36.0511 -99.4875 312° West 224 258 26,000  Level Kansas City Center
Thu 10:36:52 AM 36.0922 -99.5456 311° West 224 258 26,000  Level Kansas City Center
Thu 10:37:54 AM 36.1347 -99.6042 312° West 225 259 26,000  Level Kansas City Center
Thu 10:38:56 AM 36.1839 -99.6750 311° West 225 259 26,000  Level Kansas City Center
Thu 10:39:58 AM 36.2239 -99.7353 309° West 225 259 26,000  Level Kansas City Center
Thu 10:41:00 AM 36.2672 -99.7931 313° West 226 260 26,000  Level Kansas City Center
Thu 10:42:02 AM 36.3083 -99.8519 311° West 226 260 26,000  Level Kansas City Center
Thu 10:43:04 AM 36.3494 -99.9125 310° West 228 262 26,000  Level Kansas City Center
Thu 10:44:06 AM 36.3925 -99.9719 312° West 229 264 26,000  Level Kansas City Center
Thu 10:45:08 AM 36.4342 -100.0319 311° West 229 264 26,000  Level Kansas City Center
Thu 10:46:10 AM 36.4833 -100.1058 310° West 231 266 26,000  Level Kansas City Center
Thu 10:47:12 AM 36.5261 -100.1653 312° West 230 265 26,000  Level Kansas City Center
Thu 10:48:14 AM 36.5678 -100.2267 310° West 231 266 26,000  Level Kansas City Center
Thu 10:49:16 AM 36.6094 -100.2867 311° West 229 264 26,000  Level Kansas City Center
Thu 10:50:18 AM 36.6517 -100.3489 310° West 233 268 26,000  Level Kansas City Center
Thu 10:51:20 AM 36.6972 -100.4150 311° West 232 267 26,000  Level Kansas City Center
Thu 10:52:22 AM 36.7375 -100.4733 311° West 232 267 26,000  Level Kansas City Center
Thu 10:53:24 AM 36.7839 -100.5417 310° West 231 266 26,000  Level Kansas City Center
Thu 10:54:26 AM 36.8250 -100.6006 311° West 234 269 26,000  Level Kansas City Center
Thu 10:55:28 AM 36.8703 -100.6697 309° West 231 266 26,000  Level Kansas City Center
Thu 10:56:30 AM 36.9111 -100.7289 311° West 233 268 26,000  Level Kansas City Center
Thu 10:57:33 AM 36.9567 -100.7986 309° West 232 267 26,000  Level Kansas City Center
Thu 10:58:35 AM 36.9964 -100.8583 310° West 233 268 26,000  Level Kansas City Center
Thu 10:59:37 AM 37.0436 -100.9275 311° West 233 268 26,000  Level Kansas City Center
Thu 11:00:39 AM 37.0842 -100.9864 311° West 234 269 26,000  Level Kansas City Center
Thu 11:01:41 AM 37.1294 -101.0572 309° West 233 268 26,000  Level Kansas City Center
Thu 11:02:43 AM 37.1717 -101.1161 312° West 235 270 26,000  Level Kansas City Center
Thu 11:03:45 AM 37.2175 -101.1886 308° West 236 272 26,000  Level Kansas City Center
Thu 11:04:47 AM 37.2578 -101.2475 311° West 234 269 26,000  Level Kansas City Center
Thu 11:05:49 AM 37.2975 -101.3081 310° West 234 269 26,000  Level Kansas City Center
Thu 11:06:51 AM 37.3444 -101.3786 310° West 234 269 26,000  Level Kansas City Center
Thu 11:07:53 AM 37.3850 -101.4397 310° West 236 272 26,000  Level Kansas City Center
Thu 11:08:55 AM 37.4319 -101.5111 310° West 236 272 26,000  Level Kansas City Center
Thu 11:09:57 AM 37.4725 -101.5714 310° West 236 272 26,000  Level Kansas City Center
Thu 11:10:59 AM 37.5197 -101.6431 310° West 236 272 26,000  Level Kansas City Center
Thu 11:12:01 AM 37.5606 -101.7047 310° West 239 275 26,000  Level Kansas City Center
Thu 11:13:03 AM 37.6075 -101.7775 309° West 239 275 26,000 48 Level Kansas City Center
Thu 11:14:05 AM 37.6481 -101.8386 310° West 238 274 26,100 48 Climbing Kansas City Center
Thu 11:15:07 AM 37.6958 -101.9119 309° West 240 276 26,100 -48 Level Kansas City Center
Thu 11:16:09 AM 37.7361 -101.9739 309° West 239 275 26,000 -48 Descending Kansas City Center
Thu 11:17:11 AM 37.7761 -102.0367 309° West 240 276 26,000 48 Level Kansas City Center
Thu 11:18:13 AM 37.8256 -102.1081 311° West 241 277 26,100 48 Climbing Kansas City Center
Thu 11:19:15 AM 37.8639 -102.1736 307° West 241 277 26,100  Level Kansas City Center
Thu 11:20:18 AM 37.9139 -102.2442 312° West 240 276 26,100  Level Kansas City Center
Thu 11:21:20 AM 37.9528 -102.3081 308° West 239 275 26,100  Level Kansas City Center
Thu 11:22:22 AM 38.0008 -102.3811 310° West 241 277 26,100  Level Kansas City Center
Thu 11:23:24 AM 38.0406 -102.4447 308° West 240 276 26,100  Level Kansas City Center
Thu 11:24:26 AM 38.0894 -102.5172 311° West 241 277 26,100  Level Kansas City Center
Thu 11:25:47 AM 38.1433 -102.6025 309° West 241 277 26,100  Level Denver Center
Thu 11:26:49 AM 38.1906 -102.6753 310° West 239 275 26,100  Level Denver Center
Thu 11:27:51 AM 38.2297 -102.7400 308° West 242 278 26,100  Level Denver Center
Thu 11:28:54 AM 38.2819 -102.8114 313° West 244 281 26,100  Level Denver Center
Thu 11:29:56 AM 38.3219 -102.8758 308° West 245 282 26,100  Level Denver Center
Thu 11:30:58 AM 38.3703 -102.9478 311° West 238 274 26,100  Level Denver Center
Thu 11:32:00 AM 38.4136 -103.0111 311° West 245 282 26,100  Level Denver Center
Thu 11:33:02 AM 38.4547 -103.0750 309° West 244 281 26,100  Level Denver Center
Thu 11:34:04 AM 38.5042 -103.1450 312° West 239 275 26,100  Level Denver Center
Thu 11:35:06 AM 38.5450 -103.2103 309° West 241 277 26,100  Level Denver Center
Thu 11:36:08 AM 38.5936 -103.2825 311° West 245 282 26,100  Level Denver Center
Thu 11:37:10 AM 38.6383 -103.3483 311° West 247 284 26,100  Level Denver Center
Thu 11:38:12 AM 38.6808 -103.4161 309° West 244 281 26,100  Level Denver Center
Thu 11:39:14 AM 38.7294 -103.4889 311° West 250 288 26,100  Level Denver Center
Thu 11:40:16 AM 38.7719 -103.5539 310° West 250 288 26,100 -97 Level Denver Center
Thu 11:41:18 AM 38.8144 -103.6328 305° West 244 281 25,900 -484 Descending Denver Center
Thu 11:42:20 AM 38.8222 -103.7367 276° West 268 308 25,100 -1,500 Descending Denver Center
Thu 11:43:22 AM 38.8772 -103.7953 320° Northwest 283 326 22,800 -2,613 Descending Denver Center
Thu 11:44:24 AM 38.9442 -103.8494 328° Northwest 287 330 19,700 -3,290 Descending Denver Center
Thu 11:45:26 AM 39.0217 -103.9211 324° Northwest 287 330 16,000 -3,242 Descending Denver Center
Thu 11:46:28 AM 39.0836 -103.9703 328° Northwest 269 310 13,000 -2,419 Descending Denver Center
Thu 11:47:30 AM 39.1417 -104.0228 325° Northwest 259 298 11,000 -1,008 Descending Denver Center
Thu 11:48:33 AM 39.1953 -104.0692 326° Northwest 241 277 10,900 -192 Descending Denver Center
Thu 11:49:35 AM 39.2567 -104.1233 326° Northwest 246 283 10,600 -581 Descending Denver Center
Thu 11:50:37 AM 39.3036 -104.1922 311° West 257 296 9,700 -774 Descending Denver Center
Thu 11:51:39 AM 39.3117 -104.2881 276° West 273 314 9,000 -339 Descending Denver Center
Thu 11:52:41 AM 39.3236 -104.3639 282° West 208 239 9,000  Level Denver Center
Thu 11:53:43 AM 39.3328 -104.4358 279° West 203 234 9,000  Level Denver Center
Thu 11:54:45 AM 39.3439 -104.5153 280° West 208 239 9,000  Level Denver Center
Thu 11:55:47 AM 39.3528 -104.5872 279° West 206 237 9,000  Level Denver Center
Thu 11:56:49 AM 39.3694 -104.6642 286° West 215 247 9,000  Level Denver Center
Thu 11:57:51 AM 39.4128 -104.7100 321° Northwest 210 242 9,000  Level Denver Center
Thu 11:58:53 AM 39.4506 -104.7642 312° West 205 236 9,000  Level Denver Center
Thu 11:59:55 AM 39.4917 -104.8239 312° West 207 238 9,000  Level Denver Center
Thu 12:00:57 PM 39.5319 -104.8786 314° West 206 237 9,000  Level Denver Center
Thu 12:01:59 PM 39.5800 -104.9175 328° Northwest 197 227 9,000 -435 Level Denver Center
Thu 12:03:01 PM 39.6311 -104.9039 12° North 195 224 8,100 -1,210 Descending Denver Center
Thu 12:04:03 PM 39.6242 -104.8533 100° East 147 169 6,500 -1,016 Descending Denver Center
Thu 12:05:05 PM 39.5908 -104.8508 177° South 120 138 6,000 -484 Descending Denver Center

Login

Don't have an account? Register now (free) for customized features, flight alerts, and more!